sensor_id;sensor_type;location;lat;lon;timestamp;pressure;altitude;pressure_sealevel;temperature;humidity
49055;BME280;35405;52.344;14.530;2023-06-22T05:09:17;101362.44;;;21.17;70.84
49055;BME280;35405;52.344;14.530;2023-06-22T05:11:43;101364.66;;;21.44;70.07
49055;BME280;35405;52.344;14.530;2023-06-22T05:14:08;101365.06;;;21.54;69.37
49055;BME280;35405;52.344;14.530;2023-06-22T05:16:33;101368.09;;;21.63;68.69
49055;BME280;35405;52.344;14.530;2023-06-22T05:18:59;101371.00;;;21.75;68.63
49055;BME280;35405;52.344;14.530;2023-06-22T05:21:25;101369.44;;;21.88;67.67
49055;BME280;35405;52.344;14.530;2023-06-22T05:23:51;101371.31;;;21.86;66.03
49055;BME280;35405;52.344;14.530;2023-06-22T05:26:16;101360.16;;;21.97;64.18
49055;BME280;35405;52.344;14.530;2023-06-22T05:28:41;101361.72;;;22.18;63.14
49055;BME280;35405;52.344;14.530;2023-06-22T05:31:07;101363.78;;;22.29;61.84
49055;BME280;35405;52.344;14.530;2023-06-22T05:33:32;101374.84;;;22.20;63.07
49055;BME280;35405;52.344;14.530;2023-06-22T05:35:57;101376.09;;;21.95;61.64
49055;BME280;35405;52.344;14.530;2023-06-22T05:38:22;101373.03;;;21.87;62.30
49055;BME280;35405;52.344;14.530;2023-06-22T05:40:47;101375.72;;;21.85;60.01
49055;BME280;35405;52.344;14.530;2023-06-22T05:43:13;101371.59;;;21.97;61.31
49055;BME280;35405;52.344;14.530;2023-06-22T05:45:38;101371.03;;;22.25;60.67
49055;BME280;35405;52.344;14.530;2023-06-22T05:48:03;101375.97;;;22.47;59.08
49055;BME280;35405;52.344;14.530;2023-06-22T05:50:28;101378.97;;;22.57;59.20
49055;BME280;35405;52.344;14.530;2023-06-22T05:52:54;101378.31;;;22.69;58.89
49055;BME280;35405;52.344;14.530;2023-06-22T05:55:19;101380.09;;;22.69;58.22
49055;BME280;35405;52.344;14.530;2023-06-22T05:57:44;101376.84;;;22.79;58.78
49055;BME280;35405;52.344;14.530;2023-06-22T06:00:09;101395.03;;;22.70;56.96
49055;BME280;35405;52.344;14.530;2023-06-22T06:02:36;101383.25;;;22.59;56.68
49055;BME280;35405;52.344;14.530;2023-06-22T06:05:01;101388.94;;;22.83;56.50
49055;BME280;35405;52.344;14.530;2023-06-22T06:07:28;101394.63;;;22.93;54.81
49055;BME280;35405;52.344;14.530;2023-06-22T06:09:53;101394.66;;;23.23;53.53
49055;BME280;35405;52.344;14.530;2023-06-22T06:12:18;101402.94;;;23.33;53.08
49055;BME280;35405;52.344;14.530;2023-06-22T06:14:43;101403.59;;;23.37;53.88
49055;BME280;35405;52.344;14.530;2023-06-22T06:17:09;101405.34;;;23.52;54.38
49055;BME280;35405;52.344;14.530;2023-06-22T06:19:34;101405.66;;;23.31;53.27
49055;BME280;35405;52.344;14.530;2023-06-22T06:21:59;101413.28;;;23.68;52.59
49055;BME280;35405;52.344;14.530;2023-06-22T06:24:25;101403.78;;;23.94;52.78
49055;BME280;35405;52.344;14.530;2023-06-22T06:26:50;101409.75;;;24.12;51.19
49055;BME280;35405;52.344;14.530;2023-06-22T06:29:15;101415.06;;;24.55;51.45
49055;BME280;35405;52.344;14.530;2023-06-22T06:31:41;101404.78;;;24.77;51.72
49055;BME280;35405;52.344;14.530;2023-06-22T06:34:06;101408.13;;;24.66;51.06
49055;BME280;35405;52.344;14.530;2023-06-22T06:36:31;101416.91;;;24.81;50.81
49055;BME280;35405;52.344;14.530;2023-06-22T06:38:57;101407.84;;;24.71;48.68
49055;BME280;35405;52.344;14.530;2023-06-22T06:41:22;101411.91;;;24.62;47.79
49055;BME280;35405;52.344;14.530;2023-06-22T06:43:48;101411.06;;;24.33;49.07
49055;BME280;35405;52.344;14.530;2023-06-22T06:46:13;101410.69;;;24.11;47.50
49055;BME280;35405;52.344;14.530;2023-06-22T06:48:38;101404.72;;;24.21;48.27
49055;BME280;35405;52.344;14.530;2023-06-22T06:51:04;101409.84;;;24.24;48.88
49055;BME280;35405;52.344;14.530;2023-06-22T06:53:30;101409.81;;;24.39;47.78
49055;BME280;35405;52.344;14.530;2023-06-22T06:55:55;101402.16;;;24.63;47.16
49055;BME280;35405;52.344;14.530;2023-06-22T06:58:21;101403.72;;;24.80;47.41
49055;BME280;35405;52.344;14.530;2023-06-22T07:00:48;101408.13;;;24.93;47.31
49055;BME280;35405;52.344;14.530;2023-06-22T07:03:13;101407.41;;;24.91;44.81
49055;BME280;35405;52.344;14.530;2023-06-22T07:05:38;101407.59;;;24.88;45.75
49055;BME280;35405;52.344;14.530;2023-06-22T07:08:04;101405.84;;;24.74;45.98
49055;BME280;35405;52.344;14.530;2023-06-22T07:10:29;101402.81;;;24.81;46.43
49055;BME280;35405;52.344;14.530;2023-06-22T07:12:54;101395.72;;;24.53;47.43
49055;BME280;35405;52.344;14.530;2023-06-22T07:15:20;101389.28;;;24.57;45.69
49055;BME280;35405;52.344;14.530;2023-06-22T07:17:45;101386.97;;;24.79;45.38
49055;BME280;35405;52.344;14.530;2023-06-22T07:20:10;101390.88;;;25.01;44.62
49055;BME280;35405;52.344;14.530;2023-06-22T07:22:40;101370.97;;;25.08;43.35
49055;BME280;35405;52.344;14.530;2023-06-22T07:25:06;101369.22;;;25.07;43.90
49055;BME280;35405;52.344;14.530;2023-06-22T07:28:07;101369.88;;;25.25;44.32
49055;BME280;35405;52.344;14.530;2023-06-22T07:30:26;101369.22;;;25.34;41.28
49055;BME280;35405;52.344;14.530;2023-06-22T07:32:52;101361.06;;;25.37;42.01
49055;BME280;35405;52.344;14.530;2023-06-22T07:35:17;101364.69;;;25.36;41.95
49055;BME280;35405;52.344;14.530;2023-06-22T07:37:42;101369.81;;;25.52;42.04
49055;BME280;35405;52.344;14.530;2023-06-22T07:40:08;101363.44;;;25.41;41.91
49055;BME280;35405;52.344;14.530;2023-06-22T07:42:33;101363.97;;;25.59;41.96
49055;BME280;35405;52.344;14.530;2023-06-22T07:44:59;101364.34;;;25.80;41.13
49055;BME280;35405;52.344;14.530;2023-06-22T07:47:24;101367.06;;;25.66;39.61
49055;BME280;35405;52.344;14.530;2023-06-22T07:49:53;101367.78;;;25.68;40.34
49055;BME280;35405;52.344;14.530;2023-06-22T07:52:19;101359.81;;;25.42;40.55
49055;BME280;35405;52.344;14.530;2023-06-22T07:54:44;101361.53;;;25.69;40.75
49055;BME280;35405;52.344;14.530;2023-06-22T07:57:10;101358.75;;;25.71;39.99
49055;BME280;35405;52.344;14.530;2023-06-22T07:59:35;101358.69;;;25.72;40.81
49055;BME280;35405;52.344;14.530;2023-06-22T08:02:00;101352.53;;;25.97;37.21
49055;BME280;35405;52.344;14.530;2023-06-22T08:04:26;101352.19;;;26.02;36.24
49055;BME280;35405;52.344;14.530;2023-06-22T08:06:52;101351.03;;;26.06;37.45
49055;BME280;35405;52.344;14.530;2023-06-22T08:09:17;101349.22;;;26.19;36.82
49055;BME280;35405;52.344;14.530;2023-06-22T08:11:42;101344.25;;;26.51;36.65
49055;BME280;35405;52.344;14.530;2023-06-22T08:14:08;101344.03;;;26.78;37.11
49055;BME280;35405;52.344;14.530;2023-06-22T08:16:33;101339.16;;;26.96;36.57
49055;BME280;35405;52.344;14.530;2023-06-22T08:18:58;101330.88;;;26.77;36.78
49055;BME280;35405;52.344;14.530;2023-06-22T08:21:23;101328.19;;;27.01;35.33
49055;BME280;35405;52.344;14.530;2023-06-22T08:23:48;101328.03;;;27.15;34.49
49055;BME280;35405;52.344;14.530;2023-06-22T08:26:14;101332.28;;;27.29;35.47
49055;BME280;35405;52.344;14.530;2023-06-22T08:28:39;101326.94;;;27.18;36.04
49055;BME280;35405;52.344;14.530;2023-06-22T08:31:04;101337.91;;;26.65;36.12
49055;BME280;35405;52.344;14.530;2023-06-22T08:33:30;101332.47;;;26.43;36.74
49055;BME280;35405;52.344;14.530;2023-06-22T08:35:56;101333.63;;;26.51;35.97
49055;BME280;35405;52.344;14.530;2023-06-22T08:38:21;101333.56;;;26.64;36.03
49055;BME280;35405;52.344;14.530;2023-06-22T08:40:46;101330.00;;;27.00;36.10
49055;BME280;35405;52.344;14.530;2023-06-22T08:43:12;101342.88;;;27.42;34.17
49055;BME280;35405;52.344;14.530;2023-06-22T08:45:37;101344.19;;;27.36;35.27
49055;BME280;35405;52.344;14.530;2023-06-22T08:48:02;101347.69;;;27.83;34.08
49055;BME280;35405;52.344;14.530;2023-06-22T08:50:27;101343.56;;;27.79;31.33
49055;BME280;35405;52.344;14.530;2023-06-22T08:52:52;101344.84;;;27.51;32.62
49055;BME280;35405;52.344;14.530;2023-06-22T08:55:18;101349.38;;;27.84;32.28
49055;BME280;35405;52.344;14.530;2023-06-22T08:57:43;101335.81;;;27.87;32.27
49055;BME280;35405;52.344;14.530;2023-06-22T09:00:09;101340.63;;;28.38;30.51
49055;BME280;35405;52.344;14.530;2023-06-22T09:02:41;101336.47;;;28.68;30.24
49055;BME280;35405;52.344;14.530;2023-06-22T09:05:06;101333.28;;;28.74;29.95
49055;BME280;35405;52.344;14.530;2023-06-22T09:07:31;101326.31;;;28.94;30.29
49055;BME280;35405;52.344;14.530;2023-06-22T09:09:56;101326.91;;;28.65;30.77
49055;BME280;35405;52.344;14.530;2023-06-22T09:12:22;101317.25;;;28.42;31.03
49055;BME280;35405;52.344;14.530;2023-06-22T09:14:50;101322.22;;;28.35;29.89
49055;BME280;35405;52.344;14.530;2023-06-22T09:17:15;101319.69;;;28.22;29.94
49055;BME280;35405;52.344;14.530;2023-06-22T09:19:41;101319.66;;;28.45;29.73
49055;BME280;35405;52.344;14.530;2023-06-22T09:22:06;101319.19;;;28.83;29.32
49055;BME280;35405;52.344;14.530;2023-06-22T09:24:32;101313.97;;;28.82;27.85
49055;BME280;35405;52.344;14.530;2023-06-22T09:26:57;101304.84;;;29.37;27.65
49055;BME280;35405;52.344;14.530;2023-06-22T09:29:22;101299.53;;;29.99;27.70
49055;BME280;35405;52.344;14.530;2023-06-22T09:31:47;101297.28;;;29.94;27.29
49055;BME280;35405;52.344;14.530;2023-06-22T09:34:13;101302.19;;;29.37;28.87
49055;BME280;35405;52.344;14.530;2023-06-22T09:36:38;101296.09;;;28.93;29.21
49055;BME280;35405;52.344;14.530;2023-06-22T09:39:04;101298.34;;;28.98;29.28
49055;BME280;35405;52.344;14.530;2023-06-22T09:41:31;101296.19;;;28.92;29.97
49055;BME280;35405;52.344;14.530;2023-06-22T09:43:56;101295.75;;;28.55;30.08
49055;BME280;35405;52.344;14.530;2023-06-22T09:46:21;101293.88;;;28.12;30.61
49055;BME280;35405;52.344;14.530;2023-06-22T09:48:50;101292.72;;;28.37;31.15
49055;BME280;35405;52.344;14.530;2023-06-22T09:51:15;101300.47;;;28.62;30.50
49055;BME280;35405;52.344;14.530;2023-06-22T09:53:40;101301.22;;;28.31;30.76
49055;BME280;35405;52.344;14.530;2023-06-22T09:56:05;101303.13;;;28.62;30.84
49055;BME280;35405;52.344;14.530;2023-06-22T09:58:31;101301.56;;;28.60;30.64
49055;BME280;35405;52.344;14.530;2023-06-22T10:00:56;101300.81;;;28.69;30.58
49055;BME280;35405;52.344;14.530;2023-06-22T10:03:21;101307.09;;;28.68;30.50
49055;BME280;35405;52.344;14.530;2023-06-22T10:05:47;101309.31;;;28.52;30.13
49055;BME280;35405;52.344;14.530;2023-06-22T10:08:12;101312.00;;;28.52;30.49
49055;BME280;35405;52.344;14.530;2023-06-22T10:10:38;101312.13;;;28.50;30.84
49055;BME280;35405;52.344;14.530;2023-06-22T10:13:07;101306.06;;;28.37;31.22
49055;BME280;35405;52.344;14.530;2023-06-22T10:15:34;101304.16;;;28.16;32.17
49055;BME280;35405;52.344;14.530;2023-06-22T10:17:59;101301.41;;;27.95;32.27
49055;BME280;35405;52.344;14.530;2023-06-22T10:20:24;101304.06;;;27.95;32.02
49055;BME280;35405;52.344;14.530;2023-06-22T10:22:50;101314.25;;;27.79;32.44
49055;BME280;35405;52.344;14.530;2023-06-22T10:25:16;101301.28;;;27.86;32.23
49055;BME280;35405;52.344;14.530;2023-06-22T10:27:41;101306.25;;;27.90;31.78
49055;BME280;35405;52.344;14.530;2023-06-22T10:30:07;101309.22;;;27.63;32.41
49055;BME280;35405;52.344;14.530;2023-06-22T10:32:33;101297.63;;;27.75;31.85
49055;BME280;35405;52.344;14.530;2023-06-22T10:34:58;101303.44;;;27.81;32.03
49055;BME280;35405;52.344;14.530;2023-06-22T10:37:23;101295.56;;;27.90;32.04
49055;BME280;35405;52.344;14.530;2023-06-22T10:39:48;101303.09;;;27.96;31.70
49055;BME280;35405;52.344;14.530;2023-06-22T10:42:14;101297.72;;;27.74;31.35
49055;BME280;35405;52.344;14.530;2023-06-22T10:44:39;101296.50;;;27.67;31.64
49055;BME280;35405;52.344;14.530;2023-06-22T10:47:06;101293.72;;;27.57;31.58
49055;BME280;35405;52.344;14.530;2023-06-22T10:49:31;101300.75;;;27.69;31.88
49055;BME280;35405;52.344;14.530;2023-06-22T10:51:56;101298.69;;;28.18;31.80
49055;BME280;35405;52.344;14.530;2023-06-22T10:54:21;101293.06;;;28.55;31.55
49055;BME280;35405;52.344;14.530;2023-06-22T10:56:47;101290.44;;;29.08;31.42
49055;BME280;35405;52.344;14.530;2023-06-22T10:59:12;101287.59;;;29.00;30.63
49055;BME280;35405;52.344;14.530;2023-06-22T11:01:37;101290.13;;;29.22;30.95
49055;BME280;35405;52.344;14.530;2023-06-22T11:04:03;101288.44;;;29.21;29.89
49055;BME280;35405;52.344;14.530;2023-06-22T11:06:28;101290.84;;;29.03;30.58
49055;BME280;35405;52.344;14.530;2023-06-22T11:08:54;101287.66;;;29.30;31.19
49055;BME280;35405;52.344;14.530;2023-06-22T11:11:19;101283.00;;;29.32;32.13
49055;BME280;35405;52.344;14.530;2023-06-22T11:13:44;101279.75;;;29.29;32.21
49055;BME280;35405;52.344;14.530;2023-06-22T11:16:09;101278.78;;;29.09;32.75
49055;BME280;35405;52.344;14.530;2023-06-22T11:18:35;101277.22;;;29.27;32.44
49055;BME280;35405;52.344;14.530;2023-06-22T11:21:00;101266.38;;;29.71;31.76
49055;BME280;35405;52.344;14.530;2023-06-22T11:23:25;101266.88;;;29.34;32.53
49055;BME280;35405;52.344;14.530;2023-06-22T11:25:52;101262.94;;;29.38;31.96
49055;BME280;35405;52.344;14.530;2023-06-22T11:28:17;101258.31;;;29.40;31.68
49055;BME280;35405;52.344;14.530;2023-06-22T11:30:42;101246.53;;;29.22;31.81
49055;BME280;35405;52.344;14.530;2023-06-22T11:33:08;101253.09;;;29.38;32.03
49055;BME280;35405;52.344;14.530;2023-06-22T11:35:33;101245.75;;;29.31;32.43
49055;BME280;35405;52.344;14.530;2023-06-22T11:37:58;101237.41;;;29.24;32.03
49055;BME280;35405;52.344;14.530;2023-06-22T11:40:23;101231.16;;;28.93;33.04
49055;BME280;35405;52.344;14.530;2023-06-22T11:42:49;101230.44;;;28.91;33.10
49055;BME280;35405;52.344;14.530;2023-06-22T11:45:14;101229.91;;;28.97;33.16
49055;BME280;35405;52.344;14.530;2023-06-22T11:47:39;101232.38;;;28.89;32.65
49055;BME280;35405;52.344;14.530;2023-06-22T11:50:04;101227.72;;;29.02;32.43
49055;BME280;35405;52.344;14.530;2023-06-22T11:52:30;101235.63;;;28.71;33.43
49055;BME280;35405;52.344;14.530;2023-06-22T11:54:55;101227.00;;;28.47;34.05
49055;BME280;35405;52.344;14.530;2023-06-22T11:57:20;101227.81;;;28.15;34.08
49055;BME280;35405;52.344;14.530;2023-06-22T11:59:45;101230.63;;;28.35;34.49
49055;BME280;35405;52.344;14.530;2023-06-22T12:02:11;101230.41;;;28.49;32.85
49055;BME280;35405;52.344;14.530;2023-06-22T12:04:36;101227.50;;;28.30;33.94
49055;BME280;35405;52.344;14.530;2023-06-22T12:07:01;101227.63;;;28.28;34.79
49055;BME280;35405;52.344;14.530;2023-06-22T12:09:27;101226.50;;;28.74;33.70
49055;BME280;35405;52.344;14.530;2023-06-22T12:11:52;101224.34;;;29.00;32.44
49055;BME280;35405;52.344;14.530;2023-06-22T12:14:18;101226.78;;;28.92;33.21
49055;BME280;35405;52.344;14.530;2023-06-22T12:16:43;101215.72;;;28.97;32.99
49055;BME280;35405;52.344;14.530;2023-06-22T12:19:09;101215.66;;;28.87;32.97
49055;BME280;35405;52.344;14.530;2023-06-22T12:21:34;101211.81;;;28.80;32.85
49055;BME280;35405;52.344;14.530;2023-06-22T12:23:59;101210.16;;;29.00;33.01
49055;BME280;35405;52.344;14.530;2023-06-22T12:26:24;101221.53;;;29.02;31.87
49055;BME280;35405;52.344;14.530;2023-06-22T12:28:49;101220.47;;;28.93;32.35
49055;BME280;35405;52.344;14.530;2023-06-22T12:31:15;101210.59;;;28.52;32.44
49055;BME280;35405;52.344;14.530;2023-06-22T12:33:40;101220.78;;;28.79;32.83
49055;BME280;35405;52.344;14.530;2023-06-22T12:36:05;101211.22;;;28.97;31.54
49055;BME280;35405;52.344;14.530;2023-06-22T12:38:30;101207.25;;;28.91;31.53
49055;BME280;35405;52.344;14.530;2023-06-22T12:40:55;101215.41;;;28.90;31.89
49055;BME280;35405;52.344;14.530;2023-06-22T12:43:21;101209.28;;;28.99;31.79
49055;BME280;35405;52.344;14.530;2023-06-22T12:45:46;101191.78;;;29.06;31.15
49055;BME280;35405;52.344;14.530;2023-06-22T12:48:11;101197.03;;;28.97;31.54
49055;BME280;35405;52.344;14.530;2023-06-22T12:50:37;101194.88;;;28.69;32.05
49055;BME280;35405;52.344;14.530;2023-06-22T12:53:02;101178.28;;;29.08;32.10
49055;BME280;35405;52.344;14.530;2023-06-22T12:55:29;101171.41;;;29.46;31.52
49055;BME280;35405;52.344;14.530;2023-06-22T12:57:54;101175.47;;;29.71;31.10
49055;BME280;35405;52.344;14.530;2023-06-22T13:00:19;101171.66;;;29.63;30.78
49055;BME280;35405;52.344;14.530;2023-06-22T13:02:45;101173.75;;;29.70;30.89
49055;BME280;35405;52.344;14.530;2023-06-22T13:05:10;101175.75;;;29.68;30.33
49055;BME280;35405;52.344;14.530;2023-06-22T13:07:35;101169.91;;;30.12;29.94
49055;BME280;35405;52.344;14.530;2023-06-22T13:10:00;101174.41;;;30.12;29.31
49055;BME280;35405;52.344;14.530;2023-06-22T13:12:26;101167.13;;;30.24;29.08
49055;BME280;35405;52.344;14.530;2023-06-22T13:14:51;101166.22;;;30.91;28.89
49055;BME280;35405;52.344;14.530;2023-06-22T13:17:16;101162.03;;;30.89;29.25
49055;BME280;35405;52.344;14.530;2023-06-22T13:19:41;101153.16;;;30.69;29.13
49055;BME280;35405;52.344;14.530;2023-06-22T13:22:52;101150.28;;;31.46;28.20
49055;BME280;35405;52.344;14.530;2023-06-22T13:24:53;101143.44;;;33.21;24.60
49055;BME280;35405;52.344;14.530;2023-06-22T13:27:18;101137.84;;;34.32;23.67
49055;BME280;35405;52.344;14.530;2023-06-22T13:29:44;101141.59;;;35.19;22.59
49055;BME280;35405;52.344;14.530;2023-06-22T13:32:09;101142.16;;;35.46;21.29
49055;BME280;35405;52.344;14.530;2023-06-22T13:34:34;101143.56;;;35.34;21.51
49055;BME280;35405;52.344;14.530;2023-06-22T13:36:59;101140.47;;;34.97;21.57
49055;BME280;35405;52.344;14.530;2023-06-22T13:39:24;101130.09;;;34.29;23.16
49055;BME280;35405;52.344;14.530;2023-06-22T13:41:49;101135.78;;;32.82;25.30
49055;BME280;35405;52.344;14.530;2023-06-22T13:44:15;101133.59;;;32.34;26.37
49055;BME280;35405;52.344;14.530;2023-06-22T13:46:40;101119.19;;;31.54;27.17
49055;BME280;35405;52.344;14.530;2023-06-22T13:49:05;101125.94;;;30.83;28.32
49055;BME280;35405;52.344;14.530;2023-06-22T13:51:30;101115.09;;;30.75;28.53
49055;BME280;35405;52.344;14.530;2023-06-22T13:53:55;101123.72;;;30.69;28.89
49055;BME280;35405;52.344;14.530;2023-06-22T13:56:21;101117.56;;;30.39;29.53
49055;BME280;35405;52.344;14.530;2023-06-22T13:58:46;101112.91;;;30.31;29.96
49055;BME280;35405;52.344;14.530;2023-06-22T14:01:11;101107.94;;;30.17;30.16
49055;BME280;35405;52.344;14.530;2023-06-22T14:03:37;101105.28;;;29.88;30.91
49055;BME280;35405;52.344;14.530;2023-06-22T14:06:02;101099.66;;;29.91;31.00
49055;BME280;35405;52.344;14.530;2023-06-22T14:08:27;101092.75;;;29.98;30.81
49055;BME280;35405;52.344;14.530;2023-06-22T14:10:52;101104.06;;;30.21;30.76
49055;BME280;35405;52.344;14.530;2023-06-22T14:13:18;101097.66;;;30.03;30.41
49055;BME280;35405;52.344;14.530;2023-06-22T14:15:44;101095.56;;;29.87;30.89
49055;BME280;35405;52.344;14.530;2023-06-22T14:18:09;101084.16;;;29.85;31.32
49055;BME280;35405;52.344;14.530;2023-06-22T14:20:34;101079.78;;;29.74;31.01
49055;BME280;35405;52.344;14.530;2023-06-22T14:22:59;101083.44;;;29.83;31.39
49055;BME280;35405;52.344;14.530;2023-06-22T14:25:24;101078.50;;;29.69;31.32
49055;BME280;35405;52.344;14.530;2023-06-22T14:27:50;101080.91;;;29.62;31.98
49055;BME280;35405;52.344;14.530;2023-06-22T14:30:15;101082.59;;;29.82;31.63
49055;BME280;35405;52.344;14.530;2023-06-22T14:32:43;101069.66;;;29.78;31.75
49055;BME280;35405;52.344;14.530;2023-06-22T14:35:08;101059.09;;;29.67;32.73
49055;BME280;35405;52.344;14.530;2023-06-22T14:37:33;101057.44;;;29.25;32.76
49055;BME280;35405;52.344;14.530;2023-06-22T14:39:58;101050.38;;;29.14;33.39
49055;BME280;35405;52.344;14.530;2023-06-22T14:42:24;101044.00;;;29.56;33.06
49055;BME280;35405;52.344;14.530;2023-06-22T14:44:51;101046.88;;;29.74;32.37
49055;BME280;35405;52.344;14.530;2023-06-22T14:47:16;101046.25;;;29.51;32.62
49055;BME280;35405;52.344;14.530;2023-06-22T14:49:43;101045.44;;;29.70;32.68
49055;BME280;35405;52.344;14.530;2023-06-22T14:52:08;101039.25;;;29.98;32.83
49055;BME280;35405;52.344;14.530;2023-06-22T14:54:34;101023.22;;;29.69;32.42
49055;BME280;35405;52.344;14.530;2023-06-22T14:56:59;101019.53;;;29.51;32.90
49055;BME280;35405;52.344;14.530;2023-06-22T14:59:24;101017.22;;;29.17;33.27
49055;BME280;35405;52.344;14.530;2023-06-22T15:01:49;101017.38;;;28.94;34.00
49055;BME280;35405;52.344;14.530;2023-06-22T15:04:15;101012.38;;;29.01;33.86
49055;BME280;35405;52.344;14.530;2023-06-22T15:06:40;101016.22;;;29.18;33.75
49055;BME280;35405;52.344;14.530;2023-06-22T15:09:05;101007.53;;;29.35;33.42
49055;BME280;35405;52.344;14.530;2023-06-22T15:11:31;101007.13;;;29.30;32.78
49055;BME280;35405;52.344;14.530;2023-06-22T15:13:58;101000.91;;;29.10;33.20
49055;BME280;35405;52.344;14.530;2023-06-22T15:16:23;101006.84;;;29.33;32.80
49055;BME280;35405;52.344;14.530;2023-06-22T15:18:48;101010.22;;;29.35;32.30
49055;BME280;35405;52.344;14.530;2023-06-22T15:21:13;101008.25;;;29.28;31.99
49055;BME280;35405;52.344;14.530;2023-06-22T15:23:39;100995.88;;;29.36;31.84
49055;BME280;35405;52.344;14.530;2023-06-22T15:26:04;100969.00;;;29.38;32.17
49055;BME280;35405;52.344;14.530;2023-06-22T15:28:32;100958.78;;;29.43;32.61
49055;BME280;35405;52.344;14.530;2023-06-22T15:30:59;100958.63;;;29.45;32.20
49055;BME280;35405;52.344;14.530;2023-06-22T15:33:25;100957.88;;;29.33;32.32
49055;BME280;35405;52.344;14.530;2023-06-22T15:35:50;100951.59;;;29.34;32.54
49055;BME280;35405;52.344;14.530;2023-06-22T15:38:15;100952.44;;;29.54;31.66
49055;BME280;35405;52.344;14.530;2023-06-22T15:40:40;100948.25;;;29.61;31.75
49055;BME280;35405;52.344;14.530;2023-06-22T15:43:07;100953.97;;;29.56;31.29
49055;BME280;35405;52.344;14.530;2023-06-22T15:45:34;100953.16;;;29.65;31.52
49055;BME280;35405;52.344;14.530;2023-06-22T15:48:00;100956.53;;;29.68;31.31
49055;BME280;35405;52.344;14.530;2023-06-22T15:50:25;100953.97;;;29.47;31.34
49055;BME280;35405;52.344;14.530;2023-06-22T15:52:50;100958.59;;;29.35;31.65
49055;BME280;35405;52.344;14.530;2023-06-22T15:55:18;100946.09;;;29.16;31.55
49055;BME280;35405;52.344;14.530;2023-06-22T15:57:43;100951.25;;;29.08;31.87
49055;BME280;35405;52.344;14.530;2023-06-22T16:00:11;100947.19;;;29.04;32.28
49055;BME280;35405;52.344;14.530;2023-06-22T16:02:38;100944.81;;;29.10;32.69
49055;BME280;35405;52.344;14.530;2023-06-22T16:05:04;100948.06;;;29.33;32.30
49055;BME280;35405;52.344;14.530;2023-06-22T16:07:29;100950.56;;;29.15;32.06
49055;BME280;35405;52.344;14.530;2023-06-22T16:09:54;100941.63;;;28.95;32.72
49055;BME280;35405;52.344;14.530;2023-06-22T16:12:19;100940.53;;;28.98;33.09
49055;BME280;35405;52.344;14.530;2023-06-22T16:14:45;100931.56;;;29.09;32.79
49055;BME280;35405;52.344;14.530;2023-06-22T16:17:10;100934.09;;;29.01;32.87
49055;BME280;35405;52.344;14.530;2023-06-22T16:19:35;100933.78;;;28.94;32.65
49055;BME280;35405;52.344;14.530;2023-06-22T16:22:00;100923.22;;;28.83;32.82
49055;BME280;35405;52.344;14.530;2023-06-22T16:24:25;100929.97;;;28.87;33.23
49055;BME280;35405;52.344;14.530;2023-06-22T16:26:51;100923.91;;;28.85;32.48
49055;BME280;35405;52.344;14.530;2023-06-22T16:29:16;100920.28;;;28.95;32.64
49055;BME280;35405;52.344;14.530;2023-06-22T16:31:41;100922.44;;;29.02;32.46
49055;BME280;35405;52.344;14.530;2023-06-22T16:34:06;100915.09;;;28.94;32.70
49055;BME280;35405;52.344;14.530;2023-06-22T16:36:32;100910.56;;;28.85;33.26
49055;BME280;35405;52.344;14.530;2023-06-22T16:38:57;100903.53;;;28.84;33.58
49055;BME280;35405;52.344;14.530;2023-06-22T16:41:22;100903.50;;;28.74;33.53
49055;BME280;35405;52.344;14.530;2023-06-22T16:43:47;100909.25;;;28.60;32.99
49055;BME280;35405;52.344;14.530;2023-06-22T16:46:13;100891.06;;;28.44;33.85
49055;BME280;35405;52.344;14.530;2023-06-22T16:48:38;100890.16;;;28.64;33.53
49055;BME280;35405;52.344;14.530;2023-06-22T16:51:04;100881.88;;;28.67;33.71
49055;BME280;35405;52.344;14.530;2023-06-22T16:53:29;100887.34;;;28.66;33.89
49055;BME280;35405;52.344;14.530;2023-06-22T16:55:56;100883.25;;;28.52;34.03
49055;BME280;35405;52.344;14.530;2023-06-22T16:58:22;100874.81;;;28.57;34.25
49055;BME280;35405;52.344;14.530;2023-06-22T17:00:50;100869.53;;;28.76;33.70
49055;BME280;35405;52.344;14.530;2023-06-22T17:03:16;100862.38;;;28.77;33.77
49055;BME280;35405;52.344;14.530;2023-06-22T17:05:43;100852.66;;;28.66;33.39
49055;BME280;35405;52.344;14.530;2023-06-22T17:08:08;100849.41;;;28.72;33.28
49055;BME280;35405;52.344;14.530;2023-06-22T17:10:38;100832.41;;;28.54;33.21
49055;BME280;35405;52.344;14.530;2023-06-22T17:13:03;100843.31;;;28.41;33.44
49055;BME280;35405;52.344;14.530;2023-06-22T17:15:32;100834.50;;;28.19;33.78
49055;BME280;35405;52.344;14.530;2023-06-22T17:17:57;100824.66;;;28.10;34.15
49055;BME280;35405;52.344;14.530;2023-06-22T17:20:23;100831.63;;;28.01;34.54
49055;BME280;35405;52.344;14.530;2023-06-22T17:22:48;100833.16;;;28.04;34.52
49055;BME280;35405;52.344;14.530;2023-06-22T17:25:14;100836.56;;;28.06;34.04
49055;BME280;35405;52.344;14.530;2023-06-22T17:27:39;100833.84;;;27.96;34.54
49055;BME280;35405;52.344;14.530;2023-06-22T17:30:05;100842.94;;;27.94;34.79
49055;BME280;35405;52.344;14.530;2023-06-22T17:32:31;100841.41;;;27.91;34.77
49055;BME280;35405;52.344;14.530;2023-06-22T17:34:56;100832.06;;;27.76;34.92
49055;BME280;35405;52.344;14.530;2023-06-22T17:37:22;100842.44;;;27.58;35.08
49055;BME280;35405;52.344;14.530;2023-06-22T17:39:51;100829.84;;;27.39;35.75